Terminal Aerodrome Forecast
Issued by NWS Charleston, WV

Current Version | Previous Version | Graphics & Text | Print | Product List | Glossary On
Versions: 1 2 3 4 5 6 7 8 9 10 11 12 13 14 15 16 17 18 19 20 21 22 23
000
FTUS41 KRLX 010200 AAA
TAFPKB
TAF AMD
KPKB 010257Z 0103/0124 32003KT P6SM FEW022 BKN030 OVC045
     FM010600 00000KT 6SM BR BKN022
     FM010800 00000KT 6SM BR BKN010
     FM011500 00000KT P6SM SCT014
     FM011800 VRB03KT P6SM SCT040=

USA.gov is the U.S. government's official web portal to all federal, state and local government web resources and services.